Portada
METAR-TAF:

METAR-TAF

Aeroports :

Asahikawa-airbase, Japó

latitud: 43-48N, longitud: 142-22E, altitud: 115 m

Observació

L'informe es va fer fa 18 hores i 2 minuts, a les 02:32 UTC
Vent 11 kt del Oest
Temperatura 1°C
Humitat 93%
Pressió 1015 hPa
Visibilitat: 1000 m
Escasses núvols a una alçada de 800 ft
Cel ennuvolat a una alçada de 1000 ft
Cel ennuvolat a una alçada de 2000 ft
xàfecs de neu

METAR: RJCA 260232Z 27011KT 1000 -SHSN FEW008 BKN010 BKN020 01/M00 Q1015 RMK 1ST008 5ST010 7CU020 A2997

Hora: 05:34 (20:34 UTC)


TAF: manca

Observacions i pronòstics meteorològics de més de 4000 aeroports (METAR i TAF).

Les estacions disponibles són els punts grocs i vermells al mapa.

Posi el ratolí al punt desitjat per veure el nom de l'estació.

Feu clic per veure les observacions i els pronòstics meteorològics.

Per canviar el mapa: feu clic els botons verds amb una creu de color negre per apropar; al botó verd amb un guió per allunyar la imatge; o en les fletxes verdes per a mapes adjacents.


METAR-TAF: